Time;durP1;ratioP1;P1;durP2;ratioP2;P2;SDS_P1;SDS_P2;PMS_P1;PMS_P2;Temp;Humidity;BMP_temperature;BMP_pressure;BME280_temperature;BME280_humidity;BME280_pressure;Samples;Min_cycle;Max_cycle;Signal;HPM_P1;HPM_P2
2023/06/05 00:01:34;;;;;;;;;;;;;;;;;;4915752;29;19934;-82
2023/06/05 00:04:20;;;;;;;;;;;;;;;;;;4935746;29;19925;-82
2023/06/05 00:07:07;;;;;;;;;;;;;;;;;;4927379;29;19943;-80
2023/06/05 00:09:53;;;;;;;;;;;;;;;;;;4929996;29;19922;-82
2023/06/05 00:12:41;;;;;;;;;;;;;;;;;;4930391;29;19923;-82
2023/06/05 00:15:27;;;;;;;;;;;;;;;;;;4937951;29;19934;-81
2023/06/05 00:18:14;;;;;;;;;;;;;;;;;;4938726;28;19919;-82
2023/06/05 00:21:00;;;;;;;;;;;;;;;;;;4940676;28;20382;-82
2023/06/05 00:23:47;;;;;;;;;;;;;;;;;;4942290;29;19930;-79
2023/06/05 00:26:33;;;;;;;;;;;;;;;;;;4946135;28;19930;-81
2023/06/05 00:29:20;;;;;;;;;;;;;;;;;;4935245;29;20556;-82
2023/06/05 00:32:06;;;;;;;;;;;;;;;;;;4945282;28;19919;-80
2023/06/05 00:34:53;;;;;;;;;;;;;;;;;;4930900;28;19931;-81
2023/06/05 00:37:39;;;;;;;;;;;;;;;;;;4924089;28;19945;-80
2023/06/05 00:40:26;;;;;;;;;;;;;;;;;;4942615;28;19941;-79
2023/06/05 00:43:12;;;;;;;;;;;;;;;;;;4930143;28;19930;-78
2023/06/05 00:45:59;;;;;;;;;;;;;;;;;;4927368;29;19918;-80
2023/06/05 00:48:48;;;;;;;;;;;;;;;;;;4943602;29;19926;-79
2023/06/05 00:51:35;;;;;;;;;;;;;;;;;;4940216;29;20386;-82
2023/06/05 00:54:22;;;;;;;;;;;;;;;;;;4940116;29;19926;-79
2023/06/05 00:57:08;;;;;;;;;;;;;;;;;;4938677;28;19927;-80
2023/06/05 00:59:55;;;;;;;;;;;;;;;;;;4936768;29;19922;-80
2023/06/05 01:02:41;;;;;;;;;;;;;;;;;;4950305;28;19922;-81
2023/06/05 01:05:28;;;;;;;;;;;;;;;;;;4941321;28;19964;-80
2023/06/05 01:08:16;;;;;;;;;;;;;;;;;;4946660;29;19926;-80
2023/06/05 01:11:03;;;;;;;;;;;;;;;;;;4944852;29;19923;-80
2023/06/05 01:13:50;;;;;;;;;;;;;;;;;;4935571;29;19930;-80
2023/06/05 01:16:36;;;;;;;;;;;;;;;;;;4940731;29;19918;-81
2023/06/05 01:19:28;;;;;;;;;;;;;;;;;;4941541;29;19927;-80
2023/06/05 01:22:15;;;;;;;;;;;;;;;;;;4942555;29;20458;-81
2023/06/05 01:25:02;;;;;;;;;;;;;;;;;;4939239;29;20373;-80
2023/06/05 01:27:49;;;;;;;;;;;;;;;;;;4946705;29;20402;-79
2023/06/05 01:30:35;;;;;;;;;;;;;;;;;;4933672;28;19915;-80
2023/06/05 01:33:24;;;;;;;;;;;;;;;;;;4940500;28;19925;-80
2023/06/05 01:36:11;;;;;;;;;;;;;;;;;;4931574;29;19930;-82
2023/06/05 01:38:57;;;;;;;;;;;;;;;;;;4941369;28;20294;-78
2023/06/05 01:41:44;;;;;;;;;;;;;;;;;;4945079;28;20019;-79
2023/06/05 01:44:30;;;;;;;;;;;;;;;;;;4934120;28;19925;-78
2023/06/05 01:47:17;;;;;;;;;;;;;;;;;;4940257;28;19919;-78
2023/06/05 01:50:03;;;;;;;;;;;;;;;;;;4950591;28;20235;-79
2023/06/05 01:52:52;;;;;;;;;;;;;;;;;;4955765;28;19918;-79
2023/06/05 01:55:40;;;;;;;;;;;;;;;;;;4923500;28;19963;-78
2023/06/05 01:58:27;;;;;;;;;;;;;;;;;;4935436;29;19919;-78
2023/06/05 02:01:15;;;;;;;;;;;;;;;;;;4940908;29;19925;-78
2023/06/05 02:04:05;;;;;;;;;;;;;;;;;;4938183;28;19926;-78
2023/06/05 02:06:52;;;;;;;;;;;;;;;;;;4935402;28;19918;-78
2023/06/05 02:09:39;;;;;;;;;;;;;;;;;;4949781;28;19922;-79
2023/06/05 02:12:26;;;;;;;;;;;;;;;;;;4937703;28;20300;-79
2023/06/05 02:15:13;;;;;;;;;;;;;;;;;;4935857;29;19933;-79
2023/06/05 02:18:00;;;;;;;;;;;;;;;;;;4944225;28;19918;-78
2023/06/05 02:20:47;;;;;;;;;;;;;;;;;;4948633;28;20578;-78
2023/06/05 02:23:34;;;;;;;;;;;;;;;;;;4945491;28;20045;-78
2023/06/05 02:26:21;;;;;;;;;;;;;;;;;;4936621;28;19934;-79
2023/06/05 02:29:09;;;;;;;;;;;;;;;;;;4940825;29;19918;-78
2023/06/05 02:31:56;;;;;;;;;;;;;;;;;;4950531;28;19919;-78
2023/06/05 02:34:46;;;;;;;;;;;;;;;;;;4939008;28;19949;-79
2023/06/05 02:37:36;;;;;;;;;;;;;;;;;;4947696;28;19921;-78
2023/06/05 02:40:23;;;;;;;;;;;;;;;;;;4940240;28;20015;-78
2023/06/05 02:43:11;;;;;;;;;;;;;;;;;;4943491;28;19918;-79
2023/06/05 02:45:57;;;;;;;;;;;;;;;;;;4941618;28;19929;-79
2023/06/05 02:48:44;;;;;;;;;;;;;;;;;;4937143;28;20034;-78
2023/06/05 02:51:30;;;;;;;;;;;;;;;;;;4936216;28;19919;-78
2023/06/05 02:54:17;;;;;;;;;;;;;;;;;;4937121;29;19922;-78
2023/06/05 02:57:06;;;;;;;;;;;;;;;;;;4943040;28;19929;-78
2023/06/05 02:59:53;;;;;;;;;;;;;;;;;;4940615;29;19922;-78
2023/06/05 03:02:39;;;;;;;;;;;;;;;;;;4925393;29;19914;-79
2023/06/05 03:05:26;;;;;;;;;;;;;;;;;;4939539;29;19930;-79
2023/06/05 03:08:13;;;;;;;;;;;;;;;;;;4939668;29;19923;-79
2023/06/05 03:11:00;;;;;;;;;;;;;;;;;;4940761;28;19918;-79
2023/06/05 03:13:46;;;;;;;;;;;;;;;;;;4939129;29;19946;-79
2023/06/05 03:16:37;;;;;;;;;;;;;;;;;;4938879;28;19938;-79
2023/06/05 03:19:24;;;;;;;;;;;;;;;;;;4937921;28;19922;-78
2023/06/05 03:22:11;;;;;;;;;;;;;;;;;;4945832;29;20002;-80
2023/06/05 03:24:57;;;;;;;;;;;;;;;;;;4934312;29;19919;-79
2023/06/05 03:27:44;;;;;;;;;;;;;;;;;;4946560;28;19949;-79
2023/06/05 03:30:30;;;;;;;;;;;;;;;;;;4936048;29;20268;-79
2023/06/05 03:33:17;;;;;;;;;;;;;;;;;;4939237;28;19922;-80
2023/06/05 03:36:05;;;;;;;;;;;;;;;;;;4948788;28;20318;-79
2023/06/05 03:38:51;;;;;;;;;;;;;;;;;;4940257;29;19914;-79
2023/06/05 03:41:38;;;;;;;;;;;;;;;;;;4938162;28;19929;-80
2023/06/05 03:44:24;;;;;;;;;;;;;;;;;;4936473;29;19934;-79
2023/06/05 03:47:14;;;;;;;;;;;;;;;;;;4943536;29;19925;-79
2023/06/05 03:50:03;;;;;;;;;;;;;;;;;;4943510;28;19918;-79
2023/06/05 03:52:53;;;;;;;;;;;;;;;;;;4939752;28;19925;-77
2023/06/05 03:55:45;;;;;;;;;;;;;;;;;;4943248;28;19927;-78
2023/06/05 03:58:32;;;;;;;;;;;;;;;;;;4939354;29;19925;-78
2023/06/05 04:01:18;;;;;;;;;;;;;;;;;;4927055;28;20404;-78
2023/06/05 04:04:05;;;;;;;;;;;;;;;;;;4935720;28;19923;-78
2023/06/05 04:06:51;;;;;;;;;;;;;;;;;;4939837;29;20224;-78
2023/06/05 04:09:38;;;;;;;;;;;;;;;;;;4941393;28;19930;-79
2023/06/05 04:12:24;;;;;;;;;;;;;;;;;;4937973;28;19922;-79
2023/06/05 04:15:11;;;;;;;;;;;;;;;;;;4936609;29;19930;-79
2023/06/05 04:17:57;;;;;;;;;;;;;;;;;;4941620;29;19925;-79
2023/06/05 04:20:44;;;;;;;;;;;;;;;;;;4937114;28;19930;-79
2023/06/05 04:23:30;;;;;;;;;;;;;;;;;;4942883;28;20312;-79
2023/06/05 04:26:18;;;;;;;;;;;;;;;;;;4878952;28;1911940;-80
2023/06/05 04:29:16;;;;;;;;;;;;;;;;;;4929233;29;19925;-79
2023/06/05 04:32:03;;;;;;;;;;;;;;;;;;4938278;29;19923;-80
2023/06/05 04:34:50;;;;;;;;;;;;;;;;;;4939031;28;19941;-80
2023/06/05 04:37:37;;;;;;;;;;;;;;;;;;4932781;29;19926;-78
2023/06/05 04:40:23;;;;;;;;;;;;;;;;;;4940325;28;19933;-80
2023/06/05 04:43:10;;;;;;;;;;;;;;;;;;4942931;28;19914;-80
2023/06/05 04:45:56;;;;;;;;;;;;;;;;;;4933433;28;19941;-80
2023/06/05 04:48:45;;;;;;;;;;;;;;;;;;4936286;29;19925;-80
2023/06/05 04:51:31;;;;;;;;;;;;;;;;;;4939577;28;19950;-79
2023/06/05 04:54:18;;;;;;;;;;;;;;;;;;4940983;29;19933;-81
2023/06/05 04:57:05;;;;;;;;;;;;;;;;;;4935452;29;20409;-80
2023/06/05 04:59:52;;;;;;;;;;;;;;;;;;4940090;28;19919;-80
2023/06/05 05:02:38;;;;;;;;;;;;;;;;;;4939786;28;19927;-80
2023/06/05 05:05:25;;;;;;;;;;;;;;;;;;4939250;29;19923;-80
2023/06/05 05:08:12;;;;;;;;;;;;;;;;;;4941571;28;19919;-81
2023/06/05 05:10:58;;;;;;;;;;;;;;;;;;4945780;28;19929;-80
2023/06/05 05:13:45;;;;;;;;;;;;;;;;;;4933993;29;19921;-80
2023/06/05 05:16:32;;;;;;;;;;;;;;;;;;4931100;28;20414;-80
2023/06/05 05:19:19;;;;;;;;;;;;;;;;;;4945262;28;19929;-81
2023/06/05 05:22:06;;;;;;;;;;;;;;;;;;4943090;28;19929;-80
2023/06/05 05:24:52;;;;;;;;;;;;;;;;;;4945106;28;20552;-79
2023/06/05 05:27:39;;;;;;;;;;;;;;;;;;4942988;28;19937;-80
2023/06/05 05:30:25;;;;;;;;;;;;;;;;;;4941528;28;19934;-79
2023/06/05 05:33:12;;;;;;;;;;;;;;;;;;4942317;28;19925;-83
2023/06/05 05:35:58;;;;;;;;;;;;;;;;;;4955486;28;19933;-82
2023/06/05 05:38:45;;;;;;;;;;;;;;;;;;4941024;29;19931;-82
2023/06/05 05:41:31;;;;;;;;;;;;;;;;;;4941961;28;19918;-82
2023/06/05 05:44:19;;;;;;;;;;;;;;;;;;4946598;28;19923;-79
2023/06/05 05:47:06;;;;;;;;;;;;;;;;;;4942395;29;20378;-79
2023/06/05 05:49:52;;;;;;;;;;;;;;;;;;4945900;28;19919;-79
2023/06/05 05:52:38;;;;;;;;;;;;;;;;;;4931953;28;19922;-81
2023/06/05 05:55:25;;;;;;;;;;;;;;;;;;4943955;28;19927;-81
2023/06/05 05:58:12;;;;;;;;;;;;;;;;;;4945396;29;20466;-80
2023/06/05 06:00:59;;;;;;;;;;;;;;;;;;4947593;28;20573;-80
2023/06/05 06:03:45;;;;;;;;;;;;;;;;;;4934937;28;19926;-81
2023/06/05 06:06:33;;;;;;;;;;;;;;;;;;4942953;28;19968;-82
2023/06/05 06:09:19;;;;;;;;;;;;;;;;;;4939667;28;19919;-80
2023/06/05 06:12:07;;;;;;;;;;;;;;;;;;4931753;29;19930;-81
2023/06/05 06:14:53;;;;;;;;;;;;;;;;;;4941755;28;19933;-80
2023/06/05 06:17:40;;;;;;;;;;;;;;;;;;4930811;29;19923;-80
2023/06/05 06:20:27;;;;;;;;;;;;;;;;;;4936871;29;20004;-80
2023/06/05 06:23:14;;;;;;;;;;;;;;;;;;4941001;28;19919;-80
2023/06/05 06:26:00;;;;;;;;;;;;;;;;;;4945611;28;19922;-79
2023/06/05 06:28:47;;;;;;;;;;;;;;;;;;4943874;28;19930;-79
2023/06/05 06:31:33;;;;;;;;;;;;;;;;;;4940996;29;19958;-79
2023/06/05 06:34:20;;;;;;;;;;;;;;;;;;4942012;29;19919;-79
2023/06/05 06:37:06;;;;;;;;;;;;;;;;;;4947378;28;19922;-78
2023/06/05 06:39:53;;;;;;;;;;;;;;;;;;4944970;29;19930;-79
2023/06/05 06:42:39;;;;;;;;;;;;;;;;;;4946623;28;19926;-80
2023/06/05 06:45:26;;;;;;;;;;;;;;;;;;4943038;28;19934;-80
2023/06/05 06:48:13;;;;;;;;;;;;;;;;;;4939949;29;19934;-80
2023/06/05 06:50:59;;;;;;;;;;;;;;;;;;4936912;28;19918;-79
2023/06/05 06:53:46;;;;;;;;;;;;;;;;;;4937972;29;19923;-79
2023/06/05 06:56:32;;;;;;;;;;;;;;;;;;4940082;28;19934;-79
2023/06/05 06:59:19;;;;;;;;;;;;;;;;;;4933254;29;19930;-80
2023/06/05 07:02:05;;;;;;;;;;;;;;;;;;4945536;28;20513;-80
2023/06/05 07:04:54;;;;;;;;;;;;;;;;;;4945739;28;20737;-79
2023/06/05 07:07:41;;;;;;;;;;;;;;;;;;4939686;28;19942;-79
2023/06/05 07:10:28;;;;;;;;;;;;;;;;;;4929844;29;19926;-79
2023/06/05 07:13:15;;;;;;;;;;;;;;;;;;4935978;29;19918;-79
2023/06/05 07:16:01;;;;;;;;;;;;;;;;;;4935174;28;19931;-78
2023/06/05 07:18:48;;;;;;;;;;;;;;;;;;4941358;29;19926;-81
2023/06/05 07:21:37;;;;;;;;;;;;;;;;;;4932450;28;19919;-82
2023/06/05 07:24:24;;;;;;;;;;;;;;;;;;4935417;28;20272;-82
2023/06/05 07:27:10;;;;;;;;;;;;;;;;;;4937807;28;20314;-81
2023/06/05 07:29:57;;;;;;;;;;;;;;;;;;4941532;28;19942;-81
2023/06/05 07:32:45;;;;;;;;;;;;;;;;;;4941689;28;19926;-81
2023/06/05 07:35:31;;;;;;;;;;;;;;;;;;4941466;28;20378;-81
2023/06/05 07:38:18;;;;;;;;;;;;;;;;;;4941171;28;19918;-81
2023/06/05 07:41:04;;;;;;;;;;;;;;;;;;4937207;29;19923;-81
2023/06/05 07:43:51;;;;;;;;;;;;;;;;;;4940155;29;19926;-82
2023/06/05 07:46:37;;;;;;;;;;;;;;;;;;4936493;29;19948;-80
2023/06/05 07:49:24;;;;;;;;;;;;;;;;;;4941722;28;19918;-81
2023/06/05 07:52:10;;;;;;;;;;;;;;;;;;4947364;28;20422;-79
2023/06/05 07:54:57;;;;;;;;;;;;;;;;;;4944612;28;19930;-80
2023/06/05 07:57:44;;;;;;;;;;;;;;;;;;4936539;29;19988;-81
2023/06/05 08:00:30;;;;;;;;;;;;;;;;;;4941140;29;20441;-80
2023/06/05 08:03:20;;;;;;;;;;;;;;;;;;4935048;28;20759;-79
2023/06/05 08:06:06;;;;;;;;;;;;;;;;;;4939826;28;20427;-80
2023/06/05 08:08:53;;;;;;;;;;;;;;;;;;4929466;29;19933;-80
2023/06/05 08:11:41;;;;;;;;;;;;;;;;;;4939604;29;19942;-78
2023/06/05 08:14:28;;;;;;;;;;;;;;;;;;4944161;28;19922;-78
2023/06/05 08:17:14;;;;;;;;;;;;;;;;;;4940424;29;19922;-78
2023/06/05 08:20:00;;;;;;;;;;;;;;;;;;4941827;29;20725;-80
2023/06/05 08:22:47;;;;;;;;;;;;;;;;;;4939696;28;19930;-78
2023/06/05 08:25:35;;;;;;;;;;;;;;;;;;4933191;29;19934;-79
2023/06/05 08:28:21;;;;;;;;;;;;;;;;;;4946239;28;19930;-78
2023/06/05 08:31:08;;;;;;;;;;;;;;;;;;4938377;28;19961;-79
2023/06/05 08:33:54;;;;;;;;;;;;;;;;;;4930223;28;19919;-80
2023/06/05 08:36:42;;;;;;;;;;;;;;;;;;4938971;29;19937;-78
2023/06/05 08:39:31;;;;;;;;;;;;;;;;;;4931182;29;19940;-78
2023/06/05 08:42:20;;;;;;;;;;;;;;;;;;4939442;28;19944;-79
2023/06/05 08:45:06;;;;;;;;;;;;;;;;;;4941138;28;19922;-78
2023/06/05 08:47:54;;;;;;;;;;;;;;;;;;4941061;29;19922;-79
2023/06/05 08:50:40;;;;;;;;;;;;;;;;;;4930589;28;19923;-80
2023/06/05 08:53:27;;;;;;;;;;;;;;;;;;4934347;28;19927;-78
2023/06/05 08:56:13;;;;;;;;;;;;;;;;;;4937541;28;19930;-78
2023/06/05 08:59:00;;;;;;;;;;;;;;;;;;4936124;29;19923;-78
2023/06/05 09:01:46;;;;;;;;;;;;;;;;;;4941098;28;19946;-78
2023/06/05 09:04:32;;;;;;;;;;;;;;;;;;4938920;29;19922;-78
2023/06/05 09:07:19;;;;;;;;;;;;;;;;;;4936547;28;19922;-79
2023/06/05 09:10:05;;;;;;;;;;;;;;;;;;4942578;28;19923;-77
2023/06/05 09:12:52;;;;;;;;;;;;;;;;;;4945213;29;19926;-78
2023/06/05 09:15:39;;;;;;;;;;;;;;;;;;4945230;28;19939;-78
2023/06/05 09:18:25;;;;;;;;;;;;;;;;;;4938702;29;19918;-78
2023/06/05 09:21:13;;;;;;;;;;;;;;;;;;4944714;29;20440;-78
2023/06/05 09:23:59;;;;;;;;;;;;;;;;;;4939414;29;20402;-78
2023/06/05 09:26:46;;;;;;;;;;;;;;;;;;4925304;28;19934;-77
2023/06/05 09:29:32;;;;;;;;;;;;;;;;;;4915377;29;19921;-79
2023/06/05 09:32:20;;;;;;;;;;;;;;;;;;4917456;29;19919;-76
2023/06/05 09:35:07;;;;;;;;;;;;;;;;;;4929874;29;19934;-77
2023/06/05 09:37:53;;;;;;;;;;;;;;;;;;4925597;28;20504;-77
2023/06/05 09:40:41;;;;;;;;;;;;;;;;;;4926329;29;19923;-75
2023/06/05 09:43:27;;;;;;;;;;;;;;;;;;4929620;28;19922;-75
2023/06/05 09:46:13;;;;;;;;;;;;;;;;;;4927802;28;19926;-75
2023/06/05 09:49:00;;;;;;;;;;;;;;;;;;4927753;29;19935;-76
2023/06/05 09:51:47;;;;;;;;;;;;;;;;;;4919603;29;20011;-75
2023/06/05 09:54:34;;;;;;;;;;;;;;;;;;4917965;29;19919;-75
2023/06/05 09:57:20;;;;;;;;;;;;;;;;;;4918639;29;19937;-76
2023/06/05 10:00:07;;;;;;;;;;;;;;;;;;4910114;28;19923;-76
2023/06/05 10:02:53;;;;;;;;;;;;;;;;;;4917170;28;19922;-76
2023/06/05 10:05:40;;;;;;;;;;;;;;;;;;4926193;28;20298;-76
2023/06/05 10:08:27;;;;;;;;;;;;;;;;;;4928033;28;20366;-76
2023/06/05 10:11:13;;;;;;;;;;;;;;;;;;4924491;28;19929;-77
2023/06/05 10:14:00;;;;;;;;;;;;;;;;;;4924555;28;19919;-76
2023/06/05 10:16:47;;;;;;;;;;;;;;;;;;4920331;28;19964;-76
2023/06/05 10:19:33;;;;;;;;;;;;;;;;;;4920232;28;19922;-77
2023/06/05 10:22:20;;;;;;;;;;;;;;;;;;4926617;28;19923;-77
2023/06/05 10:25:06;;;;;;;;;;;;;;;;;;4926409;28;19925;-77
2023/06/05 10:27:53;;;;;;;;;;;;;;;;;;4905573;29;19937;-76
2023/06/05 10:30:39;;;;;;;;;;;;;;;;;;4926822;29;19922;-76
2023/06/05 10:33:26;;;;;;;;;;;;;;;;;;4928385;29;19919;-77
2023/06/05 10:36:12;;;;;;;;;;;;;;;;;;4929949;29;20003;-76
2023/06/05 10:39:00;;;;;;;;;;;;;;;;;;4921997;29;19918;-77
2023/06/05 10:41:46;;;;;;;;;;;;;;;;;;4914168;28;19934;-76
2023/06/05 10:44:33;;;;;;;;;;;;;;;;;;4910882;29;19931;-78
2023/06/05 10:47:19;;;;;;;;;;;;;;;;;;4913338;28;19923;-77
2023/06/05 10:50:06;;;;;;;;;;;;;;;;;;4926467;29;19922;-76
2023/06/05 10:52:53;;;;;;;;;;;;;;;;;;4909668;29;20575;-75
2023/06/05 10:55:39;;;;;;;;;;;;;;;;;;4904250;29;20391;-75
2023/06/05 10:58:25;;;;;;;;;;;;;;;;;;4908710;29;20014;-76
2023/06/05 11:01:12;;;;;;;;;;;;;;;;;;4901729;29;19930;-74
2023/06/05 11:03:59;;;;;;;;;;;;;;;;;;4905140;29;19934;-75
2023/06/05 11:06:45;;;;;;;;;;;;;;;;;;4905668;29;19927;-76
2023/06/05 11:09:32;;;;;;;;;;;;;;;;;;4905950;29;19934;-77
2023/06/05 11:12:18;;;;;;;;;;;;;;;;;;4898006;29;20370;-75
2023/06/05 11:15:05;;;;;;;;;;;;;;;;;;4903738;29;19932;-78
2023/06/05 11:17:51;;;;;;;;;;;;;;;;;;4899839;29;19927;-79
2023/06/05 11:20:38;;;;;;;;;;;;;;;;;;4899515;29;19927;-77
2023/06/05 11:23:28;;;;;;;;;;;;;;;;;;4909447;29;19923;-77
2023/06/05 11:26:15;;;;;;;;;;;;;;;;;;4914439;28;19931;-78
2023/06/05 11:29:01;;;;;;;;;;;;;;;;;;4941461;29;19915;-78
2023/06/05 11:31:47;;;;;;;;;;;;;;;;;;4920324;28;19915;-78
2023/06/05 11:34:34;;;;;;;;;;;;;;;;;;4939468;28;19926;-78
2023/06/05 11:37:21;;;;;;;;;;;;;;;;;;4942739;28;19930;-79
2023/06/05 11:40:11;;;;;;;;;;;;;;;;;;4940664;29;20302;-79
2023/06/05 11:42:57;;;;;;;;;;;;;;;;;;4935051;28;20511;-79
2023/06/05 11:45:44;;;;;;;;;;;;;;;;;;4934932;28;19923;-79
2023/06/05 11:48:30;;;;;;;;;;;;;;;;;;4938744;28;20310;-79
2023/06/05 11:51:16;;;;;;;;;;;;;;;;;;4919236;29;19919;-78
2023/06/05 11:54:05;;;;;;;;;;;;;;;;;;4912539;29;19918;-78
2023/06/05 11:56:52;;;;;;;;;;;;;;;;;;4912693;29;19923;-78
2023/06/05 11:59:39;;;;;;;;;;;;;;;;;;4921238;28;20394;-78
2023/06/05 12:02:25;;;;;;;;;;;;;;;;;;4913572;29;19919;-78
2023/06/05 12:05:12;;;;;;;;;;;;;;;;;;4931370;28;19962;-78
2023/06/05 12:07:59;;;;;;;;;;;;;;;;;;4929008;28;20391;-78
2023/06/05 12:10:46;;;;;;;;;;;;;;;;;;4927099;29;19934;-78
2023/06/05 12:13:32;;;;;;;;;;;;;;;;;;4912733;28;19919;-79
2023/06/05 12:16:19;;;;;;;;;;;;;;;;;;4926258;28;19954;-78
2023/06/05 12:19:05;;;;;;;;;;;;;;;;;;4932153;29;19927;-78
2023/06/05 12:21:54;;;;;;;;;;;;;;;;;;4933189;29;19922;-78
2023/06/05 12:24:41;;;;;;;;;;;;;;;;;;4930140;28;19938;-78
2023/06/05 12:27:28;;;;;;;;;;;;;;;;;;4915248;29;19943;-79
2023/06/05 12:30:16;;;;;;;;;;;;;;;;;;4914288;29;19929;-78
2023/06/05 12:33:02;;;;;;;;;;;;;;;;;;4933333;28;19942;-78
2023/06/05 12:35:49;;;;;;;;;;;;;;;;;;4934366;28;19953;-79
2023/06/05 12:38:35;;;;;;;;;;;;;;;;;;4921091;29;19926;-77
2023/06/05 12:41:22;;;;;;;;;;;;;;;;;;4940434;29;19918;-78
2023/06/05 12:44:08;;;;;;;;;;;;;;;;;;4937876;29;19942;-78
2023/06/05 12:46:55;;;;;;;;;;;;;;;;;;4934220;29;19926;-78
2023/06/05 12:49:41;;;;;;;;;;;;;;;;;;4936967;28;19929;-77
2023/06/05 12:52:28;;;;;;;;;;;;;;;;;;4942286;29;19933;-78
2023/06/05 12:55:14;;;;;;;;;;;;;;;;;;4943896;29;19929;-77
2023/06/05 12:58:01;;;;;;;;;;;;;;;;;;4939725;28;19933;-78
2023/06/05 13:00:48;;;;;;;;;;;;;;;;;;4944697;29;19922;-78
2023/06/05 13:03:34;;;;;;;;;;;;;;;;;;4941382;29;19926;-78
2023/06/05 13:06:20;;;;;;;;;;;;;;;;;;4935152;29;20614;-78
2023/06/05 13:09:07;;;;;;;;;;;;;;;;;;4940501;29;20608;-76
2023/06/05 13:11:54;;;;;;;;;;;;;;;;;;4936080;29;19923;-78
2023/06/05 13:14:40;;;;;;;;;;;;;;;;;;4941478;29;19926;-78
2023/06/05 13:17:27;;;;;;;;;;;;;;;;;;4938467;29;19946;-76
2023/06/05 13:20:14;;;;;;;;;;;;;;;;;;4938032;29;20306;-79
2023/06/05 13:23:00;;;;;;;;;;;;;;;;;;4935848;29;19918;-77
2023/06/05 13:25:47;;;;;;;;;;;;;;;;;;4936564;28;19926;-78
2023/06/05 13:28:33;;;;;;;;;;;;;;;;;;4903910;29;19942;-78
2023/06/05 13:31:20;;;;;;;;;;;;;;;;;;4905098;29;20521;-78
2023/06/05 13:34:06;;;;;;;;;;;;;;;;;;4900089;29;20342;-79
2023/06/05 13:36:53;;;;;;;;;;;;;;;;;;4894984;29;19934;-78
2023/06/05 13:39:40;;;;;;;;;;;;;;;;;;4922066;29;19922;-78
2023/06/05 13:42:26;;;;;;;;;;;;;;;;;;4922833;29;19915;-79
2023/06/05 13:45:13;;;;;;;;;;;;;;;;;;4926178;29;19919;-78
2023/06/05 13:47:59;;;;;;;;;;;;;;;;;;4900758;29;19923;-76
2023/06/05 13:50:46;;;;;;;;;;;;;;;;;;4904244;29;19923;-78
2023/06/05 13:53:34;;;;;;;;;;;;;;;;;;4907764;29;19926;-77
2023/06/05 13:56:21;;;;;;;;;;;;;;;;;;4900149;29;19942;-77
2023/06/05 13:59:07;;;;;;;;;;;;;;;;;;4916904;29;19927;-78
2023/06/05 14:01:54;;;;;;;;;;;;;;;;;;4920817;29;20430;-76
2023/06/05 14:04:40;;;;;;;;;;;;;;;;;;4907159;28;19924;-77
2023/06/05 14:07:27;;;;;;;;;;;;;;;;;;4909066;28;19927;-77
2023/06/05 14:10:13;;;;;;;;;;;;;;;;;;4915304;29;19954;-75
2023/06/05 14:13:00;;;;;;;;;;;;;;;;;;4924360;29;19919;-79
2023/06/05 14:15:46;;;;;;;;;;;;;;;;;;4920817;29;19946;-78
2023/06/05 14:18:33;;;;;;;;;;;;;;;;;;4914624;29;19926;-76
2023/06/05 14:21:19;;;;;;;;;;;;;;;;;;4926459;29;19934;-76
2023/06/05 14:24:06;;;;;;;;;;;;;;;;;;4919448;29;19927;-76
2023/06/05 14:26:52;;;;;;;;;;;;;;;;;;4933023;29;19941;-76
2023/06/05 14:29:39;;;;;;;;;;;;;;;;;;4932865;28;19925;-76
2023/06/05 14:32:25;;;;;;;;;;;;;;;;;;4934199;28;19919;-77
2023/06/05 14:35:12;;;;;;;;;;;;;;;;;;4936755;29;20301;-76
2023/06/05 14:37:58;;;;;;;;;;;;;;;;;;4945831;28;19922;-76
2023/06/05 14:40:45;;;;;;;;;;;;;;;;;;4937669;29;22816;-77
2023/06/05 14:43:32;;;;;;;;;;;;;;;;;;4935577;28;19926;-76
2023/06/05 14:46:18;;;;;;;;;;;;;;;;;;4939442;29;19930;-76
2023/06/05 14:49:06;;;;;;;;;;;;;;;;;;4938274;28;19925;-75
2023/06/05 14:51:52;;;;;;;;;;;;;;;;;;4933453;28;20259;-76
2023/06/05 14:54:39;;;;;;;;;;;;;;;;;;4937054;28;20429;-76
2023/06/05 14:57:25;;;;;;;;;;;;;;;;;;4942302;29;19973;-78
2023/06/05 15:00:12;;;;;;;;;;;;;;;;;;4937350;28;19925;-76
2023/06/05 15:02:58;;;;;;;;;;;;;;;;;;4941757;29;20651;-77
2023/06/05 15:05:45;;;;;;;;;;;;;;;;;;4944125;28;19922;-76
2023/06/05 15:08:31;;;;;;;;;;;;;;;;;;4941169;28;19923;-76
2023/06/05 15:11:18;;;;;;;;;;;;;;;;;;4939891;28;19923;-76
2023/06/05 15:14:04;;;;;;;;;;;;;;;;;;4936210;28;19926;-76
2023/06/05 15:16:51;;;;;;;;;;;;;;;;;;4934166;28;20254;-76
2023/06/05 15:19:37;;;;;;;;;;;;;;;;;;4941967;29;19914;-75
2023/06/05 15:22:24;;;;;;;;;;;;;;;;;;4940013;28;20568;-77
2023/06/05 15:25:10;;;;;;;;;;;;;;;;;;4929867;29;19922;-78
2023/06/05 15:27:57;;;;;;;;;;;;;;;;;;4941986;29;20565;-75
2023/06/05 15:30:43;;;;;;;;;;;;;;;;;;4931945;28;20690;-76
2023/06/05 15:33:30;;;;;;;;;;;;;;;;;;4939754;28;19997;-76
2023/06/05 15:36:16;;;;;;;;;;;;;;;;;;4942826;28;19930;-78
2023/06/05 15:39:04;;;;;;;;;;;;;;;;;;4938554;28;20417;-75
2023/06/05 15:41:50;;;;;;;;;;;;;;;;;;4939163;29;20294;-76
2023/06/05 15:44:37;;;;;;;;;;;;;;;;;;4937563;29;19926;-76
2023/06/05 15:47:23;;;;;;;;;;;;;;;;;;4934879;28;19933;-79
2023/06/05 15:50:10;;;;;;;;;;;;;;;;;;4941032;28;19918;-77
2023/06/05 15:52:56;;;;;;;;;;;;;;;;;;4934844;28;19925;-76
2023/06/05 15:55:43;;;;;;;;;;;;;;;;;;4939688;29;19936;-77
2023/06/05 15:58:29;;;;;;;;;;;;;;;;;;4941506;29;19945;-77
2023/06/05 16:01:16;;;;;;;;;;;;;;;;;;4937950;28;19919;-78
2023/06/05 16:04:02;;;;;;;;;;;;;;;;;;4935989;28;19941;-78
2023/06/05 16:06:49;;;;;;;;;;;;;;;;;;4942081;28;19929;-78
2023/06/05 16:09:35;;;;;;;;;;;;;;;;;;4940287;28;19915;-78
2023/06/05 16:12:22;;;;;;;;;;;;;;;;;;4939721;28;19929;-78
2023/06/05 16:15:08;;;;;;;;;;;;;;;;;;4930945;29;20616;-75
2023/06/05 16:17:55;;;;;;;;;;;;;;;;;;4934903;29;19927;-76
2023/06/05 16:20:41;;;;;;;;;;;;;;;;;;4939396;29;19919;-78
2023/06/05 16:23:28;;;;;;;;;;;;;;;;;;4936216;29;19919;-78
2023/06/05 16:26:14;;;;;;;;;;;;;;;;;;4943118;28;19931;-78
2023/06/05 16:29:01;;;;;;;;;;;;;;;;;;4937481;28;19929;-75
2023/06/05 16:31:48;;;;;;;;;;;;;;;;;;4933804;29;20554;-75
2023/06/05 16:34:35;;;;;;;;;;;;;;;;;;4928550;28;19979;-75
2023/06/05 16:37:21;;;;;;;;;;;;;;;;;;4931481;28;20409;-77
2023/06/05 16:40:08;;;;;;;;;;;;;;;;;;4944416;28;19918;-78
2023/06/05 16:42:54;;;;;;;;;;;;;;;;;;4928255;28;19919;-77
2023/06/05 16:45:40;;;;;;;;;;;;;;;;;;4927422;28;20293;-77
2023/06/05 16:48:27;;;;;;;;;;;;;;;;;;4940581;28;19927;-77
2023/06/05 16:51:15;;;;;;;;;;;;;;;;;;4938021;28;19926;-77
2023/06/05 16:54:01;;;;;;;;;;;;;;;;;;4941694;29;19914;-77
2023/06/05 16:56:50;;;;;;;;;;;;;;;;;;4942362;28;19922;-77
2023/06/05 16:59:36;;;;;;;;;;;;;;;;;;4935014;28;19953;-76
2023/06/05 17:02:23;;;;;;;;;;;;;;;;;;4936231;28;19954;-76
2023/06/05 17:05:10;;;;;;;;;;;;;;;;;;4932560;28;19926;-76
2023/06/05 17:07:56;;;;;;;;;;;;;;;;;;4938350;29;19925;-76
2023/06/05 17:10:43;;;;;;;;;;;;;;;;;;4938336;28;19922;-76
2023/06/05 17:13:30;;;;;;;;;;;;;;;;;;4941108;29;19933;-75
2023/06/05 17:16:16;;;;;;;;;;;;;;;;;;4941650;28;19957;-76
2023/06/05 17:19:03;;;;;;;;;;;;;;;;;;4936518;28;19919;-74
2023/06/05 17:21:49;;;;;;;;;;;;;;;;;;4951659;28;19918;-75
2023/06/05 17:24:36;;;;;;;;;;;;;;;;;;4937072;29;19918;-75
2023/06/05 17:27:22;;;;;;;;;;;;;;;;;;4926352;28;19931;-75
2023/06/05 17:30:09;;;;;;;;;;;;;;;;;;4931669;29;19922;-75
2023/06/05 17:32:55;;;;;;;;;;;;;;;;;;4946681;28;20318;-75
2023/06/05 17:35:42;;;;;;;;;;;;;;;;;;4935653;28;19919;-75
2023/06/05 17:38:28;;;;;;;;;;;;;;;;;;4944634;28;20465;-76
2023/06/05 17:41:15;;;;;;;;;;;;;;;;;;4937018;28;19914;-74
2023/06/05 17:44:02;;;;;;;;;;;;;;;;;;4939306;28;19925;-77
2023/06/05 17:46:48;;;;;;;;;;;;;;;;;;4942208;28;19926;-75
2023/06/05 17:49:35;;;;;;;;;;;;;;;;;;4930015;28;19957;-75
2023/06/05 17:52:22;;;;;;;;;;;;;;;;;;4938255;28;19930;-75
2023/06/05 17:55:08;;;;;;;;;;;;;;;;;;4927639;28;19918;-75
2023/06/05 17:57:56;;;;;;;;;;;;;;;;;;4911937;29;19938;-75
2023/06/05 18:00:42;;;;;;;;;;;;;;;;;;4917109;29;19919;-74
2023/06/05 18:03:29;;;;;;;;;;;;;;;;;;4920226;28;20429;-75
2023/06/05 18:06:15;;;;;;;;;;;;;;;;;;4919282;29;19919;-76
2023/06/05 18:09:02;;;;;;;;;;;;;;;;;;4913182;29;19923;-75
2023/06/05 18:11:48;;;;;;;;;;;;;;;;;;4920371;29;19930;-75
2023/06/05 18:14:35;;;;;;;;;;;;;;;;;;4919767;29;19930;-74
2023/06/05 18:17:21;;;;;;;;;;;;;;;;;;4921651;29;19930;-75
2023/06/05 18:20:08;;;;;;;;;;;;;;;;;;4918767;29;19927;-75
2023/06/05 18:22:54;;;;;;;;;;;;;;;;;;4916621;29;19922;-76
2023/06/05 18:25:43;;;;;;;;;;;;;;;;;;4934106;29;19927;-76
2023/06/05 18:28:30;;;;;;;;;;;;;;;;;;4923068;29;19937;-75
2023/06/05 18:31:18;;;;;;;;;;;;;;;;;;4918195;29;19926;-77
2023/06/05 18:34:06;;;;;;;;;;;;;;;;;;4923593;29;19930;-76
2023/06/05 18:36:52;;;;;;;;;;;;;;;;;;4931389;29;20039;-77
2023/06/05 18:39:39;;;;;;;;;;;;;;;;;;4924283;28;19927;-77
2023/06/05 18:42:25;;;;;;;;;;;;;;;;;;4923441;29;19929;-80
2023/06/05 18:45:12;;;;;;;;;;;;;;;;;;4926064;28;19934;-81
2023/06/05 18:47:58;;;;;;;;;;;;;;;;;;4941144;28;19922;-80
2023/06/05 18:50:45;;;;;;;;;;;;;;;;;;4927105;29;19919;-80
2023/06/05 18:53:31;;;;;;;;;;;;;;;;;;4921850;29;19923;-81
2023/06/05 18:56:18;;;;;;;;;;;;;;;;;;4919239;29;19927;-80
2023/06/05 18:59:04;;;;;;;;;;;;;;;;;;4921551;29;19923;-79